sensor_id;sensor_type;location;lat;lon;timestamp;P1;durP1;ratioP1;P2;durP2;ratioP2
22111;SDS011;11222;50.872;4.312;2022-07-17T00:01:05;6.70;;;2.60;;
22111;SDS011;11222;50.872;4.312;2022-07-17T00:03:30;3.92;;;2.85;;
22111;SDS011;11222;50.872;4.312;2022-07-17T00:05:56;3.30;;;2.53;;
22111;SDS011;11222;50.872;4.312;2022-07-17T00:08:22;5.13;;;2.90;;
22111;SDS011;11222;50.872;4.312;2022-07-17T00:10:48;6.20;;;2.80;;
22111;SDS011;11222;50.872;4.312;2022-07-17T00:13:14;4.47;;;2.60;;
22111;SDS011;11222;50.872;4.312;2022-07-17T00:15:39;6.97;;;2.75;;
22111;SDS011;11222;50.872;4.312;2022-07-17T00:18:05;5.93;;;2.70;;
22111;SDS011;11222;50.872;4.312;2022-07-17T00:20:32;7.45;;;3.10;;
22111;SDS011;11222;50.872;4.312;2022-07-17T00:22:58;5.75;;;2.45;;
22111;SDS011;11222;50.872;4.312;2022-07-17T00:25:24;4.72;;;2.53;;
22111;SDS011;11222;50.872;4.312;2022-07-17T00:27:50;6.95;;;2.65;;
22111;SDS011;11222;50.872;4.312;2022-07-17T00:30:16;5.72;;;3.10;;
22111;SDS011;11222;50.872;4.312;2022-07-17T00:32:42;7.47;;;2.85;;
22111;SDS011;11222;50.872;4.312;2022-07-17T00:35:08;7.15;;;3.22;;
22111;SDS011;11222;50.872;4.312;2022-07-17T00:37:41;4.68;;;2.67;;
22111;SDS011;11222;50.872;4.312;2022-07-17T00:40:08;5.55;;;2.92;;
22111;SDS011;11222;50.872;4.312;2022-07-17T00:42:37;5.10;;;2.97;;
22111;SDS011;11222;50.872;4.312;2022-07-17T00:45:04;5.53;;;3.15;;
22111;SDS011;11222;50.872;4.312;2022-07-17T00:47:30;6.97;;;3.10;;
22111;SDS011;11222;50.872;4.312;2022-07-17T00:49:56;6.25;;;3.15;;
22111;SDS011;11222;50.872;4.312;2022-07-17T00:52:22;4.85;;;3.03;;
22111;SDS011;11222;50.872;4.312;2022-07-17T00:54:47;4.43;;;2.80;;
22111;SDS011;11222;50.872;4.312;2022-07-17T00:57:15;6.72;;;2.80;;
22111;SDS011;11222;50.872;4.312;2022-07-17T00:59:41;6.93;;;2.90;;
22111;SDS011;11222;50.872;4.312;2022-07-17T01:02:10;6.20;;;3.05;;
22111;SDS011;11222;50.872;4.312;2022-07-17T01:04:37;7.38;;;3.10;;
22111;SDS011;11222;50.872;4.312;2022-07-17T01:07:04;4.13;;;2.80;;
22111;SDS011;11222;50.872;4.312;2022-07-17T01:09:32;6.10;;;3.05;;
22111;SDS011;11222;50.872;4.312;2022-07-17T01:11:58;9.00;;;3.33;;
22111;SDS011;11222;50.872;4.312;2022-07-17T01:14:25;5.88;;;3.40;;
22111;SDS011;11222;50.872;4.312;2022-07-17T01:16:51;4.40;;;3.10;;
22111;SDS011;11222;50.872;4.312;2022-07-17T01:19:18;6.57;;;3.22;;
22111;SDS011;11222;50.872;4.312;2022-07-17T01:21:45;5.80;;;2.75;;
22111;SDS011;11222;50.872;4.312;2022-07-17T01:24:12;5.95;;;3.20;;
22111;SDS011;11222;50.872;4.312;2022-07-17T01:26:45;4.57;;;3.40;;
22111;SDS011;11222;50.872;4.312;2022-07-17T01:29:12;5.78;;;3.10;;
22111;SDS011;11222;50.872;4.312;2022-07-17T01:31:41;5.38;;;3.35;;
22111;SDS011;11222;50.872;4.312;2022-07-17T01:34:08;6.25;;;3.15;;
22111;SDS011;11222;50.872;4.312;2022-07-17T01:36:35;9.82;;;3.63;;
22111;SDS011;11222;50.872;4.312;2022-07-17T01:39:02;4.97;;;2.97;;
22111;SDS011;11222;50.872;4.312;2022-07-17T01:41:28;6.35;;;3.53;;
22111;SDS011;11222;50.872;4.312;2022-07-17T01:43:54;4.32;;;2.75;;
22111;SDS011;11222;50.872;4.312;2022-07-17T01:46:19;11.38;;;3.17;;
22111;SDS011;11222;50.872;4.312;2022-07-17T01:48:45;6.15;;;3.40;;
22111;SDS011;11222;50.872;4.312;2022-07-17T01:51:11;6.75;;;3.30;;
22111;SDS011;11222;50.872;4.312;2022-07-17T01:53:36;6.57;;;3.00;;
22111;SDS011;11222;50.872;4.312;2022-07-17T01:56:02;5.63;;;3.22;;
22111;SDS011;11222;50.872;4.312;2022-07-17T01:58:28;7.85;;;3.50;;
22111;SDS011;11222;50.872;4.312;2022-07-17T02:00:54;5.63;;;3.17;;
22111;SDS011;11222;50.872;4.312;2022-07-17T02:03:20;8.60;;;3.60;;
22111;SDS011;11222;50.872;4.312;2022-07-17T02:05:46;9.25;;;3.58;;
22111;SDS011;11222;50.872;4.312;2022-07-17T02:08:12;5.47;;;3.40;;
22111;SDS011;11222;50.872;4.312;2022-07-17T02:10:37;6.95;;;3.20;;
22111;SDS011;11222;50.872;4.312;2022-07-17T02:13:03;6.38;;;3.33;;
22111;SDS011;11222;50.872;4.312;2022-07-17T02:15:29;7.63;;;3.47;;
22111;SDS011;11222;50.872;4.312;2022-07-17T02:17:54;5.57;;;3.38;;
22111;SDS011;11222;50.872;4.312;2022-07-17T02:20:20;7.07;;;3.90;;
22111;SDS011;11222;50.872;4.312;2022-07-17T02:22:46;4.80;;;3.50;;
22111;SDS011;11222;50.872;4.312;2022-07-17T02:25:12;14.88;;;4.10;;
22111;SDS011;11222;50.872;4.312;2022-07-17T02:27:39;5.63;;;3.65;;
22111;SDS011;11222;50.872;4.312;2022-07-17T02:30:07;5.72;;;3.80;;
22111;SDS011;11222;50.872;4.312;2022-07-17T02:32:38;5.80;;;3.60;;
22111;SDS011;11222;50.872;4.312;2022-07-17T02:35:04;6.45;;;3.58;;
22111;SDS011;11222;50.872;4.312;2022-07-17T02:37:31;6.63;;;3.72;;
22111;SDS011;11222;50.872;4.312;2022-07-17T02:39:57;9.23;;;4.15;;
22111;SDS011;11222;50.872;4.312;2022-07-17T02:42:24;6.78;;;3.95;;
22111;SDS011;11222;50.872;4.312;2022-07-17T02:44:51;8.82;;;3.88;;
22111;SDS011;11222;50.872;4.312;2022-07-17T02:47:24;8.88;;;3.80;;
22111;SDS011;11222;50.872;4.312;2022-07-17T02:49:51;8.30;;;4.00;;
22111;SDS011;11222;50.872;4.312;2022-07-17T02:52:17;8.15;;;4.05;;
22111;SDS011;11222;50.872;4.312;2022-07-17T02:54:44;8.63;;;3.78;;
22111;SDS011;11222;50.872;4.312;2022-07-17T02:57:10;7.20;;;3.95;;
22111;SDS011;11222;50.872;4.312;2022-07-17T02:59:39;11.77;;;3.90;;
22111;SDS011;11222;50.872;4.312;2022-07-17T03:02:06;5.20;;;3.75;;
22111;SDS011;11222;50.872;4.312;2022-07-17T03:04:32;5.10;;;3.90;;
22111;SDS011;11222;50.872;4.312;2022-07-17T03:06:58;7.05;;;4.22;;
22111;SDS011;11222;50.872;4.312;2022-07-17T03:09:23;8.98;;;4.20;;
22111;SDS011;11222;50.872;4.312;2022-07-17T03:11:49;9.55;;;4.30;;
22111;SDS011;11222;50.872;4.312;2022-07-17T03:14:15;8.10;;;4.03;;
22111;SDS011;11222;50.872;4.312;2022-07-17T03:16:40;5.70;;;3.58;;
22111;SDS011;11222;50.872;4.312;2022-07-17T03:19:06;6.53;;;3.83;;
22111;SDS011;11222;50.872;4.312;2022-07-17T03:21:32;6.60;;;4.03;;
22111;SDS011;11222;50.872;4.312;2022-07-17T03:23:57;10.55;;;4.13;;
22111;SDS011;11222;50.872;4.312;2022-07-17T03:26:23;8.27;;;4.55;;
22111;SDS011;11222;50.872;4.312;2022-07-17T03:28:49;8.80;;;4.38;;
22111;SDS011;11222;50.872;4.312;2022-07-17T03:31:14;6.32;;;4.10;;
22111;SDS011;11222;50.872;4.312;2022-07-17T03:33:42;6.32;;;4.30;;
22111;SDS011;11222;50.872;4.312;2022-07-17T03:36:08;6.32;;;3.92;;
22111;SDS011;11222;50.872;4.312;2022-07-17T03:38:37;6.25;;;4.15;;
22111;SDS011;11222;50.872;4.312;2022-07-17T03:41:09;5.20;;;4.35;;
22111;SDS011;11222;50.872;4.312;2022-07-17T03:43:35;7.47;;;3.92;;
22111;SDS011;11222;50.872;4.312;2022-07-17T03:46:00;9.57;;;4.60;;
22111;SDS011;11222;50.872;4.312;2022-07-17T03:48:26;7.07;;;4.30;;
22111;SDS011;11222;50.872;4.312;2022-07-17T03:50:55;7.72;;;4.22;;
22111;SDS011;11222;50.872;4.312;2022-07-17T03:53:21;8.13;;;4.60;;
22111;SDS011;11222;50.872;4.312;2022-07-17T03:55:46;8.90;;;4.80;;
22111;SDS011;11222;50.872;4.312;2022-07-17T03:58:12;6.40;;;4.15;;
22111;SDS011;11222;50.872;4.312;2022-07-17T04:00:37;12.70;;;4.70;;
22111;SDS011;11222;50.872;4.312;2022-07-17T04:03:03;8.02;;;4.20;;
22111;SDS011;11222;50.872;4.312;2022-07-17T04:05:29;5.93;;;4.45;;
22111;SDS011;11222;50.872;4.312;2022-07-17T04:07:54;8.15;;;4.50;;
22111;SDS011;11222;50.872;4.312;2022-07-17T04:10:20;8.05;;;4.57;;
22111;SDS011;11222;50.872;4.312;2022-07-17T04:12:46;7.80;;;4.50;;
22111;SDS011;11222;50.872;4.312;2022-07-17T04:15:13;14.13;;;5.22;;
22111;SDS011;11222;50.872;4.312;2022-07-17T04:17:58;8.02;;;4.93;;
22111;SDS011;11222;50.872;4.312;2022-07-17T04:20:24;6.63;;;4.43;;
22111;SDS011;11222;50.872;4.312;2022-07-17T04:22:50;8.15;;;4.30;;
22111;SDS011;11222;50.872;4.312;2022-07-17T04:25:15;8.05;;;4.20;;
22111;SDS011;11222;50.872;4.312;2022-07-17T04:27:41;7.68;;;4.07;;
22111;SDS011;11222;50.872;4.312;2022-07-17T04:30:07;7.68;;;4.00;;
22111;SDS011;11222;50.872;4.312;2022-07-17T04:32:33;9.60;;;3.85;;
22111;SDS011;11222;50.872;4.312;2022-07-17T04:34:58;11.18;;;4.15;;
22111;SDS011;11222;50.872;4.312;2022-07-17T04:37:24;9.98;;;4.22;;
22111;SDS011;11222;50.872;4.312;2022-07-17T04:39:50;11.70;;;4.10;;
22111;SDS011;11222;50.872;4.312;2022-07-17T04:42:15;10.60;;;4.15;;
22111;SDS011;11222;50.872;4.312;2022-07-17T04:44:41;9.15;;;3.80;;
22111;SDS011;11222;50.872;4.312;2022-07-17T04:47:07;6.45;;;3.92;;
22111;SDS011;11222;50.872;4.312;2022-07-17T04:49:32;6.03;;;3.60;;
22111;SDS011;11222;50.872;4.312;2022-07-17T04:51:58;7.88;;;3.90;;
22111;SDS011;11222;50.872;4.312;2022-07-17T04:54:23;7.55;;;3.72;;
22111;SDS011;11222;50.872;4.312;2022-07-17T04:56:49;10.98;;;3.83;;
22111;SDS011;11222;50.872;4.312;2022-07-17T04:59:15;8.50;;;3.80;;
22111;SDS011;11222;50.872;4.312;2022-07-17T05:01:40;9.18;;;3.67;;
22111;SDS011;11222;50.872;4.312;2022-07-17T05:04:06;12.15;;;4.00;;
22111;SDS011;11222;50.872;4.312;2022-07-17T05:06:32;7.90;;;3.92;;
22111;SDS011;11222;50.872;4.312;2022-07-17T05:08:57;6.63;;;3.55;;
22111;SDS011;11222;50.872;4.312;2022-07-17T05:11:23;9.27;;;4.40;;
22111;SDS011;11222;50.872;4.312;2022-07-17T05:13:48;7.38;;;4.15;;
22111;SDS011;11222;50.872;4.312;2022-07-17T05:16:14;6.63;;;4.00;;
22111;SDS011;11222;50.872;4.312;2022-07-17T05:18:40;8.95;;;4.40;;
22111;SDS011;11222;50.872;4.312;2022-07-17T05:21:05;8.63;;;3.90;;
22111;SDS011;11222;50.872;4.312;2022-07-17T05:23:31;8.18;;;4.22;;
22111;SDS011;11222;50.872;4.312;2022-07-17T05:26:00;8.40;;;4.40;;
22111;SDS011;11222;50.872;4.312;2022-07-17T05:28:25;10.48;;;5.05;;
22111;SDS011;11222;50.872;4.312;2022-07-17T05:30:51;6.85;;;4.50;;
22111;SDS011;11222;50.872;4.312;2022-07-17T05:33:17;7.28;;;4.00;;
22111;SDS011;11222;50.872;4.312;2022-07-17T05:35:42;5.97;;;3.60;;
22111;SDS011;11222;50.872;4.312;2022-07-17T05:38:09;10.00;;;3.55;;
22111;SDS011;11222;50.872;4.312;2022-07-17T05:40:35;7.45;;;4.25;;
22111;SDS011;11222;50.872;4.312;2022-07-17T05:43:01;7.15;;;4.03;;
22111;SDS011;11222;50.872;4.312;2022-07-17T05:45:26;13.68;;;4.03;;
22111;SDS011;11222;50.872;4.312;2022-07-17T05:47:52;8.95;;;4.90;;
22111;SDS011;11222;50.872;4.312;2022-07-17T05:50:18;7.65;;;3.90;;
22111;SDS011;11222;50.872;4.312;2022-07-17T05:52:44;6.38;;;3.67;;
22111;SDS011;11222;50.872;4.312;2022-07-17T05:55:09;8.43;;;4.45;;
22111;SDS011;11222;50.872;4.312;2022-07-17T05:57:35;7.13;;;3.88;;
22111;SDS011;11222;50.872;4.312;2022-07-17T06:00:01;6.22;;;3.78;;
22111;SDS011;11222;50.872;4.312;2022-07-17T06:02:26;5.53;;;3.50;;
22111;SDS011;11222;50.872;4.312;2022-07-17T06:04:52;10.45;;;3.67;;
22111;SDS011;11222;50.872;4.312;2022-07-17T06:07:18;6.95;;;3.88;;
22111;SDS011;11222;50.872;4.312;2022-07-17T06:09:43;5.90;;;3.90;;
22111;SDS011;11222;50.872;4.312;2022-07-17T06:12:09;7.28;;;3.88;;
22111;SDS011;11222;50.872;4.312;2022-07-17T06:14:35;6.22;;;4.18;;
22111;SDS011;11222;50.872;4.312;2022-07-17T06:17:00;7.13;;;4.10;;
22111;SDS011;11222;50.872;4.312;2022-07-17T06:19:26;5.25;;;3.70;;
22111;SDS011;11222;50.872;4.312;2022-07-17T06:21:52;8.57;;;3.75;;
22111;SDS011;11222;50.872;4.312;2022-07-17T06:24:17;5.72;;;3.60;;
22111;SDS011;11222;50.872;4.312;2022-07-17T06:26:43;7.57;;;3.65;;
22111;SDS011;11222;50.872;4.312;2022-07-17T06:29:09;8.70;;;3.85;;
22111;SDS011;11222;50.872;4.312;2022-07-17T06:31:34;6.15;;;3.17;;
22111;SDS011;11222;50.872;4.312;2022-07-17T06:34:00;8.07;;;4.00;;
22111;SDS011;11222;50.872;4.312;2022-07-17T06:36:26;11.35;;;3.88;;
22111;SDS011;11222;50.872;4.312;2022-07-17T06:38:51;8.55;;;3.83;;
22111;SDS011;11222;50.872;4.312;2022-07-17T06:41:17;8.05;;;4.03;;
22111;SDS011;11222;50.872;4.312;2022-07-17T06:43:43;9.20;;;4.20;;
22111;SDS011;11222;50.872;4.312;2022-07-17T06:46:08;7.25;;;3.60;;
22111;SDS011;11222;50.872;4.312;2022-07-17T06:48:34;6.97;;;3.55;;
22111;SDS011;11222;50.872;4.312;2022-07-17T06:51:00;7.15;;;3.55;;
22111;SDS011;11222;50.872;4.312;2022-07-17T06:53:25;5.97;;;3.38;;
22111;SDS011;11222;50.872;4.312;2022-07-17T06:55:51;10.50;;;3.72;;
22111;SDS011;11222;50.872;4.312;2022-07-17T06:58:17;7.05;;;4.10;;
22111;SDS011;11222;50.872;4.312;2022-07-17T07:00:42;7.03;;;3.67;;
22111;SDS011;11222;50.872;4.312;2022-07-17T07:03:08;7.18;;;3.22;;
22111;SDS011;11222;50.872;4.312;2022-07-17T07:05:34;5.50;;;3.30;;
22111;SDS011;11222;50.872;4.312;2022-07-17T07:07:59;11.23;;;3.75;;
22111;SDS011;11222;50.872;4.312;2022-07-17T07:10:25;7.38;;;3.28;;
22111;SDS011;11222;50.872;4.312;2022-07-17T07:12:52;8.70;;;4.22;;
22111;SDS011;11222;50.872;4.312;2022-07-17T07:15:17;9.93;;;3.65;;
22111;SDS011;11222;50.872;4.312;2022-07-17T07:17:43;8.25;;;3.35;;
22111;SDS011;11222;50.872;4.312;2022-07-17T07:20:09;7.88;;;3.83;;
22111;SDS011;11222;50.872;4.312;2022-07-17T07:22:36;9.80;;;3.63;;
22111;SDS011;11222;50.872;4.312;2022-07-17T07:25:02;8.02;;;3.58;;
22111;SDS011;11222;50.872;4.312;2022-07-17T07:27:28;10.38;;;3.90;;
22111;SDS011;11222;50.872;4.312;2022-07-17T07:29:54;6.32;;;3.15;;
22111;SDS011;11222;50.872;4.312;2022-07-17T07:32:20;9.05;;;3.58;;
22111;SDS011;11222;50.872;4.312;2022-07-17T07:34:46;11.93;;;4.65;;
22111;SDS011;11222;50.872;4.312;2022-07-17T07:37:12;7.00;;;3.70;;
22111;SDS011;11222;50.872;4.312;2022-07-17T07:39:37;8.45;;;3.38;;
22111;SDS011;11222;50.872;4.312;2022-07-17T07:42:03;8.95;;;3.83;;
22111;SDS011;11222;50.872;4.312;2022-07-17T07:44:29;7.20;;;3.67;;
22111;SDS011;11222;50.872;4.312;2022-07-17T07:46:55;5.43;;;3.50;;
22111;SDS011;11222;50.872;4.312;2022-07-17T07:49:20;10.00;;;3.80;;
22111;SDS011;11222;50.872;4.312;2022-07-17T07:51:46;6.72;;;3.72;;
22111;SDS011;11222;50.872;4.312;2022-07-17T07:54:11;9.43;;;4.28;;
22111;SDS011;11222;50.872;4.312;2022-07-17T07:56:37;6.60;;;4.30;;
22111;SDS011;11222;50.872;4.312;2022-07-17T07:59:06;9.75;;;4.32;;
22111;SDS011;11222;50.872;4.312;2022-07-17T08:01:31;7.53;;;4.18;;
22111;SDS011;11222;50.872;4.312;2022-07-17T08:03:57;7.85;;;3.90;;
22111;SDS011;11222;50.872;4.312;2022-07-17T08:06:23;4.40;;;3.58;;
22111;SDS011;11222;50.872;4.312;2022-07-17T08:08:48;7.18;;;3.55;;
22111;SDS011;11222;50.872;4.312;2022-07-17T08:11:14;7.15;;;3.55;;
22111;SDS011;11222;50.872;4.312;2022-07-17T08:13:41;5.70;;;3.60;;
22111;SDS011;11222;50.872;4.312;2022-07-17T08:16:07;6.60;;;3.90;;
22111;SDS011;11222;50.872;4.312;2022-07-17T08:18:33;5.75;;;3.60;;
22111;SDS011;11222;50.872;4.312;2022-07-17T08:20:59;7.72;;;3.90;;
22111;SDS011;11222;50.872;4.312;2022-07-17T08:23:25;9.55;;;3.95;;
22111;SDS011;11222;50.872;4.312;2022-07-17T08:25:51;6.90;;;3.75;;
22111;SDS011;11222;50.872;4.312;2022-07-17T08:28:16;7.57;;;3.80;;
22111;SDS011;11222;50.872;4.312;2022-07-17T08:30:42;6.85;;;4.00;;
22111;SDS011;11222;50.872;4.312;2022-07-17T08:33:08;4.80;;;3.60;;
22111;SDS011;11222;50.872;4.312;2022-07-17T08:35:35;11.10;;;3.42;;
22111;SDS011;11222;50.872;4.312;2022-07-17T08:38:01;5.55;;;3.80;;
22111;SDS011;11222;50.872;4.312;2022-07-17T08:40:29;4.82;;;3.45;;
22111;SDS011;11222;50.872;4.312;2022-07-17T08:42:57;7.93;;;4.03;;
22111;SDS011;11222;50.872;4.312;2022-07-17T08:45:23;7.68;;;3.90;;
22111;SDS011;11222;50.872;4.312;2022-07-17T08:47:53;8.10;;;3.60;;
22111;SDS011;11222;50.872;4.312;2022-07-17T08:50:22;6.80;;;3.78;;
22111;SDS011;11222;50.872;4.312;2022-07-17T08:52:49;6.63;;;3.75;;
22111;SDS011;11222;50.872;4.312;2022-07-17T08:55:15;7.82;;;4.40;;
22111;SDS011;11222;50.872;4.312;2022-07-17T08:57:42;5.00;;;3.45;;
22111;SDS011;11222;50.872;4.312;2022-07-17T09:00:13;9.75;;;3.40;;
22111;SDS011;11222;50.872;4.312;2022-07-17T09:02:52;8.93;;;3.97;;
22111;SDS011;11222;50.872;4.312;2022-07-17T09:05:29;6.13;;;3.60;;
22111;SDS011;11222;50.872;4.312;2022-07-17T09:07:57;5.20;;;4.10;;
22111;SDS011;11222;50.872;4.312;2022-07-17T09:10:33;4.75;;;3.60;;
22111;SDS011;11222;50.872;4.312;2022-07-17T09:13:01;6.38;;;3.67;;
22111;SDS011;11222;50.872;4.312;2022-07-17T09:15:51;9.13;;;3.97;;
22111;SDS011;11222;50.872;4.312;2022-07-17T09:18:18;5.95;;;3.72;;
22111;SDS011;11222;50.872;4.312;2022-07-17T09:20:49;4.72;;;3.58;;
22111;SDS011;11222;50.872;4.312;2022-07-17T09:23:17;6.97;;;3.75;;
22111;SDS011;11222;50.872;4.312;2022-07-17T09:25:44;6.20;;;3.47;;
22111;SDS011;11222;50.872;4.312;2022-07-17T09:28:13;4.93;;;3.85;;
22111;SDS011;11222;50.872;4.312;2022-07-17T09:30:41;6.82;;;3.92;;
22111;SDS011;11222;50.872;4.312;2022-07-17T09:33:16;5.30;;;3.45;;
22111;SDS011;11222;50.872;4.312;2022-07-17T09:35:44;6.72;;;3.50;;
22111;SDS011;11222;50.872;4.312;2022-07-17T09:41:08;5.75;;;3.67;;
22111;SDS011;11222;50.872;4.312;2022-07-17T09:43:41;5.07;;;3.63;;
22111;SDS011;11222;50.872;4.312;2022-07-17T09:46:09;5.88;;;3.90;;
22111;SDS011;11222;50.872;4.312;2022-07-17T09:48:42;5.90;;;3.85;;
22111;SDS011;11222;50.872;4.312;2022-07-17T09:51:31;8.20;;;4.10;;
22111;SDS011;11222;50.872;4.312;2022-07-17T09:54:00;6.65;;;4.20;;
22111;SDS011;11222;50.872;4.312;2022-07-17T09:56:29;5.25;;;3.75;;
22111;SDS011;11222;50.872;4.312;2022-07-17T09:59:03;5.05;;;3.83;;
22111;SDS011;11222;50.872;4.312;2022-07-17T10:01:30;10.13;;;6.38;;
22111;SDS011;11222;50.872;4.312;2022-07-17T10:03:57;7.25;;;3.85;;
22111;SDS011;11222;50.872;4.312;2022-07-17T10:06:23;4.40;;;4.00;;
22111;SDS011;11222;50.872;4.312;2022-07-17T10:08:50;5.45;;;4.00;;
22111;SDS011;11222;50.872;4.312;2022-07-17T10:11:16;7.60;;;4.18;;
22111;SDS011;11222;50.872;4.312;2022-07-17T10:13:45;5.30;;;3.88;;
22111;SDS011;11222;50.872;4.312;2022-07-17T10:16:11;5.45;;;4.40;;
22111;SDS011;11222;50.872;4.312;2022-07-17T10:18:42;6.95;;;4.80;;
22111;SDS011;11222;50.872;4.312;2022-07-17T10:23:34;5.97;;;4.20;;
22111;SDS011;11222;50.872;4.312;2022-07-17T10:26:03;7.15;;;5.28;;
22111;SDS011;11222;50.872;4.312;2022-07-17T10:28:42;6.68;;;4.75;;
22111;SDS011;11222;50.872;4.312;2022-07-17T10:31:24;7.70;;;4.97;;
22111;SDS011;11222;50.872;4.312;2022-07-17T10:33:55;6.85;;;4.75;;
22111;SDS011;11222;50.872;4.312;2022-07-17T10:36:42;7.47;;;5.63;;
22111;SDS011;11222;50.872;4.312;2022-07-17T10:39:15;7.22;;;5.30;;
22111;SDS011;11222;50.872;4.312;2022-07-17T10:42:00;6.47;;;4.70;;
22111;SDS011;11222;50.872;4.312;2022-07-17T10:44:27;7.47;;;4.72;;
22111;SDS011;11222;50.872;4.312;2022-07-17T10:46:54;6.28;;;5.32;;
22111;SDS011;11222;50.872;4.312;2022-07-17T10:49:21;6.20;;;5.60;;
22111;SDS011;11222;50.872;4.312;2022-07-17T10:51:47;8.05;;;5.28;;
22111;SDS011;11222;50.872;4.312;2022-07-17T10:54:13;7.13;;;4.80;;
22111;SDS011;11222;50.872;4.312;2022-07-17T10:56:39;5.22;;;4.72;;
22111;SDS011;11222;50.872;4.312;2022-07-17T10:59:11;6.35;;;4.65;;
22111;SDS011;11222;50.872;4.312;2022-07-17T11:01:37;6.43;;;4.60;;
22111;SDS011;11222;50.872;4.312;2022-07-17T11:04:04;8.60;;;7.70;;
22111;SDS011;11222;50.872;4.312;2022-07-17T11:06:32;8.25;;;5.90;;
22111;SDS011;11222;50.872;4.312;2022-07-17T11:09:06;7.40;;;6.00;;
22111;SDS011;11222;50.872;4.312;2022-07-17T11:16:52;8.07;;;5.95;;
22111;SDS011;11222;50.872;4.312;2022-07-17T11:19:26;9.38;;;7.05;;
22111;SDS011;11222;50.872;4.312;2022-07-17T11:21:54;8.93;;;5.45;;
22111;SDS011;11222;50.872;4.312;2022-07-17T11:24:22;9.38;;;7.82;;
22111;SDS011;11222;50.872;4.312;2022-07-17T11:26:49;6.03;;;5.43;;
22111;SDS011;11222;50.872;4.312;2022-07-17T11:29:15;9.07;;;8.18;;
22111;SDS011;11222;50.872;4.312;2022-07-17T11:31:42;10.00;;;7.70;;
22111;SDS011;11222;50.872;4.312;2022-07-17T11:34:09;6.53;;;5.93;;
22111;SDS011;11222;50.872;4.312;2022-07-17T11:36:40;7.60;;;6.22;;
22111;SDS011;11222;50.872;4.312;2022-07-17T11:39:12;6.95;;;5.75;;
22111;SDS011;11222;50.872;4.312;2022-07-17T11:41:40;6.95;;;5.07;;
22111;SDS011;11222;50.872;4.312;2022-07-17T11:44:12;6.40;;;5.80;;
22111;SDS011;11222;50.872;4.312;2022-07-17T11:46:39;8.25;;;5.60;;
22111;SDS011;11222;50.872;4.312;2022-07-17T11:49:06;7.32;;;5.10;;
22111;SDS011;11222;50.872;4.312;2022-07-17T11:51:42;6.82;;;5.38;;
22111;SDS011;11222;50.872;4.312;2022-07-17T11:54:13;8.05;;;5.63;;
22111;SDS011;11222;50.872;4.312;2022-07-17T11:56:41;6.10;;;5.50;;
22111;SDS011;11222;50.872;4.312;2022-07-17T11:59:25;6.00;;;5.45;;
22111;SDS011;11222;50.872;4.312;2022-07-17T12:01:56;6.65;;;5.00;;
22111;SDS011;11222;50.872;4.312;2022-07-17T12:04:31;5.65;;;5.03;;
22111;SDS011;11222;50.872;4.312;2022-07-17T12:07:00;6.18;;;5.38;;
22111;SDS011;11222;50.872;4.312;2022-07-17T12:09:28;6.63;;;5.63;;
22111;SDS011;11222;50.872;4.312;2022-07-17T12:11:58;5.53;;;4.97;;
22111;SDS011;11222;50.872;4.312;2022-07-17T12:14:24;6.75;;;6.03;;
22111;SDS011;11222;50.872;4.312;2022-07-17T12:16:50;9.85;;;5.72;;
22111;SDS011;11222;50.872;4.312;2022-07-17T12:19:17;6.95;;;5.07;;
22111;SDS011;11222;50.872;4.312;2022-07-17T12:24:26;6.57;;;5.30;;
22111;SDS011;11222;50.872;4.312;2022-07-17T12:29:20;5.28;;;4.50;;
22111;SDS011;11222;50.872;4.312;2022-07-17T12:31:46;6.38;;;4.75;;
22111;SDS011;11222;50.872;4.312;2022-07-17T12:34:12;7.35;;;4.97;;
22111;SDS011;11222;50.872;4.312;2022-07-17T12:36:38;9.05;;;4.63;;
22111;SDS011;11222;50.872;4.312;2022-07-17T12:39:04;7.72;;;4.60;;
22111;SDS011;11222;50.872;4.312;2022-07-17T12:41:30;7.78;;;4.45;;
22111;SDS011;11222;50.872;4.312;2022-07-17T12:43:56;5.63;;;4.50;;
22111;SDS011;11222;50.872;4.312;2022-07-17T12:46:22;7.78;;;5.20;;
22111;SDS011;11222;50.872;4.312;2022-07-17T12:48:47;5.53;;;4.47;;
22111;SDS011;11222;50.872;4.312;2022-07-17T12:51:13;4.75;;;4.35;;
22111;SDS011;11222;50.872;4.312;2022-07-17T12:53:40;7.60;;;4.72;;
22111;SDS011;11222;50.872;4.312;2022-07-17T12:56:07;5.50;;;5.00;;
22111;SDS011;11222;50.872;4.312;2022-07-17T12:58:33;5.82;;;4.50;;
22111;SDS011;11222;50.872;4.312;2022-07-17T13:00:59;5.10;;;4.40;;
22111;SDS011;11222;50.872;4.312;2022-07-17T13:03:25;6.13;;;5.05;;
22111;SDS011;11222;50.872;4.312;2022-07-17T13:05:51;6.10;;;5.13;;
22111;SDS011;11222;50.872;4.312;2022-07-17T13:08:17;5.55;;;4.75;;
22111;SDS011;11222;50.872;4.312;2022-07-17T13:10:43;6.20;;;4.72;;
22111;SDS011;11222;50.872;4.312;2022-07-17T13:13:09;6.20;;;4.85;;
22111;SDS011;11222;50.872;4.312;2022-07-17T13:15:34;5.38;;;4.57;;
22111;SDS011;11222;50.872;4.312;2022-07-17T13:18:00;5.28;;;4.53;;
22111;SDS011;11222;50.872;4.312;2022-07-17T13:20:26;5.90;;;4.47;;
22111;SDS011;11222;50.872;4.312;2022-07-17T13:22:52;7.00;;;4.60;;
22111;SDS011;11222;50.872;4.312;2022-07-17T13:25:18;5.20;;;4.70;;
22111;SDS011;11222;50.872;4.312;2022-07-17T13:27:43;5.30;;;4.80;;
22111;SDS011;11222;50.872;4.312;2022-07-17T13:30:10;6.38;;;4.50;;
22111;SDS011;11222;50.872;4.312;2022-07-17T13:32:36;8.35;;;5.00;;
22111;SDS011;11222;50.872;4.312;2022-07-17T13:35:02;4.97;;;4.47;;
22111;SDS011;11222;50.872;4.312;2022-07-17T13:37:28;5.15;;;4.65;;
22111;SDS011;11222;50.872;4.312;2022-07-17T13:39:53;5.47;;;4.53;;
22111;SDS011;11222;50.872;4.312;2022-07-17T13:42:19;6.72;;;4.68;;
22111;SDS011;11222;50.872;4.312;2022-07-17T13:44:44;5.18;;;4.45;;
22111;SDS011;11222;50.872;4.312;2022-07-17T13:47:10;4.93;;;4.53;;
22111;SDS011;11222;50.872;4.312;2022-07-17T13:49:36;6.47;;;4.40;;
22111;SDS011;11222;50.872;4.312;2022-07-17T13:52:01;5.05;;;4.43;;
22111;SDS011;11222;50.872;4.312;2022-07-17T13:54:27;4.97;;;4.47;;
22111;SDS011;11222;50.872;4.312;2022-07-17T13:56:53;4.90;;;4.32;;
22111;SDS011;11222;50.872;4.312;2022-07-17T13:59:18;4.93;;;4.15;;
22111;SDS011;11222;50.872;4.312;2022-07-17T14:01:44;7.35;;;4.57;;
22111;SDS011;11222;50.872;4.312;2022-07-17T14:04:10;5.18;;;4.22;;
22111;SDS011;11222;50.872;4.312;2022-07-17T14:06:36;5.43;;;4.32;;
22111;SDS011;11222;50.872;4.312;2022-07-17T14:09:01;4.78;;;4.32;;
22111;SDS011;11222;50.872;4.312;2022-07-17T14:11:27;5.55;;;4.85;;
22111;SDS011;11222;50.872;4.312;2022-07-17T14:13:53;4.57;;;4.18;;
22111;SDS011;11222;50.872;4.312;2022-07-17T14:16:19;5.07;;;4.63;;
22111;SDS011;11222;50.872;4.312;2022-07-17T14:18:44;5.53;;;4.78;;
22111;SDS011;11222;50.872;4.312;2022-07-17T14:21:29;5.50;;;4.70;;
22111;SDS011;11222;50.872;4.312;2022-07-17T14:23:59;4.85;;;4.32;;
22111;SDS011;11222;50.872;4.312;2022-07-17T14:26:26;5.57;;;5.05;;
22111;SDS011;11222;50.872;4.312;2022-07-17T14:28:51;5.72;;;4.50;;
22111;SDS011;11222;50.872;4.312;2022-07-17T14:31:17;4.97;;;4.30;;
22111;SDS011;11222;50.872;4.312;2022-07-17T14:33:43;4.60;;;4.20;;
22111;SDS011;11222;50.872;4.312;2022-07-17T14:36:09;5.82;;;4.22;;
22111;SDS011;11222;50.872;4.312;2022-07-17T14:38:36;6.55;;;4.50;;
22111;SDS011;11222;50.872;4.312;2022-07-17T14:41:02;6.18;;;4.28;;
22111;SDS011;11222;50.872;4.312;2022-07-17T14:43:28;7.32;;;4.22;;
22111;SDS011;11222;50.872;4.312;2022-07-17T14:45:54;4.60;;;4.20;;
22111;SDS011;11222;50.872;4.312;2022-07-17T14:48:20;5.35;;;4.03;;
22111;SDS011;11222;50.872;4.312;2022-07-17T14:50:46;4.80;;;4.40;;
22111;SDS011;11222;50.872;4.312;2022-07-17T14:53:12;5.22;;;4.68;;
22111;SDS011;11222;50.872;4.312;2022-07-17T14:55:37;5.07;;;4.57;;
22111;SDS011;11222;50.872;4.312;2022-07-17T14:58:03;4.85;;;4.38;;
22111;SDS011;11222;50.872;4.312;2022-07-17T15:00:29;4.65;;;4.25;;
22111;SDS011;11222;50.872;4.312;2022-07-17T15:02:54;4.47;;;4.07;;